sensor_id;sensor_type;location;lat;lon;timestamp;temperature;humidity
21149;DHT22;10732;51.472;6.466;2022-08-21T00:00:26;15.10;99.90
21149;DHT22;10732;51.472;6.466;2022-08-21T00:03:01;15.10;99.90
21149;DHT22;10732;51.472;6.466;2022-08-21T00:05:28;15.00;99.90
21149;DHT22;10732;51.472;6.466;2022-08-21T00:07:55;14.90;99.90
21149;DHT22;10732;51.472;6.466;2022-08-21T00:10:21;14.90;99.90
21149;DHT22;10732;51.472;6.466;2022-08-21T00:12:47;14.90;99.90
21149;DHT22;10732;51.472;6.466;2022-08-21T00:15:17;14.80;99.90
21149;DHT22;10732;51.472;6.466;2022-08-21T00:17:42;14.80;99.90
21149;DHT22;10732;51.472;6.466;2022-08-21T00:20:10;14.80;99.90
21149;DHT22;10732;51.472;6.466;2022-08-21T00:22:36;14.80;99.90
21149;DHT22;10732;51.472;6.466;2022-08-21T00:25:04;14.80;99.90
21149;DHT22;10732;51.472;6.466;2022-08-21T00:27:29;14.70;99.90
21149;DHT22;10732;51.472;6.466;2022-08-21T00:29:55;14.70;99.90
21149;DHT22;10732;51.472;6.466;2022-08-21T00:32:22;14.60;99.90
21149;DHT22;10732;51.472;6.466;2022-08-21T00:34:48;14.60;99.90
21149;DHT22;10732;51.472;6.466;2022-08-21T00:37:14;14.60;99.90
21149;DHT22;10732;51.472;6.466;2022-08-21T00:39:40;14.60;99.90
21149;DHT22;10732;51.472;6.466;2022-08-21T00:42:06;14.60;99.90
21149;DHT22;10732;51.472;6.466;2022-08-21T00:44:31;14.50;99.90
21149;DHT22;10732;51.472;6.466;2022-08-21T00:46:57;14.50;99.90
21149;DHT22;10732;51.472;6.466;2022-08-21T00:49:22;14.50;99.90
21149;DHT22;10732;51.472;6.466;2022-08-21T00:51:51;14.40;99.90
21149;DHT22;10732;51.472;6.466;2022-08-21T00:54:19;14.40;99.90
21149;DHT22;10732;51.472;6.466;2022-08-21T00:56:53;14.40;99.90
21149;DHT22;10732;51.472;6.466;2022-08-21T00:59:20;14.30;99.90
21149;DHT22;10732;51.472;6.466;2022-08-21T01:01:47;14.30;99.90
21149;DHT22;10732;51.472;6.466;2022-08-21T01:04:13;14.30;99.90
21149;DHT22;10732;51.472;6.466;2022-08-21T01:06:40;14.20;99.90
21149;DHT22;10732;51.472;6.466;2022-08-21T01:09:06;14.20;99.90
21149;DHT22;10732;51.472;6.466;2022-08-21T01:11:32;14.20;99.90
21149;DHT22;10732;51.472;6.466;2022-08-21T01:13:57;14.20;99.90
21149;DHT22;10732;51.472;6.466;2022-08-21T01:16:24;14.20;99.90
21149;DHT22;10732;51.472;6.466;2022-08-21T01:18:50;14.10;99.90
21149;DHT22;10732;51.472;6.466;2022-08-21T01:21:23;14.10;99.90
21149;DHT22;10732;51.472;6.466;2022-08-21T01:23:51;14.10;99.90
21149;DHT22;10732;51.472;6.466;2022-08-21T01:26:21;14.10;99.90
21149;DHT22;10732;51.472;6.466;2022-08-21T01:29:00;14.00;99.90
21149;DHT22;10732;51.472;6.466;2022-08-21T01:31:28;14.00;99.90
21149;DHT22;10732;51.472;6.466;2022-08-21T01:33:55;14.00;99.90
21149;DHT22;10732;51.472;6.466;2022-08-21T01:36:23;14.00;99.90
21149;DHT22;10732;51.472;6.466;2022-08-21T01:38:49;13.90;99.90
21149;DHT22;10732;51.472;6.466;2022-08-21T01:41:15;13.90;99.90
21149;DHT22;10732;51.472;6.466;2022-08-21T01:43:42;13.90;99.90
21149;DHT22;10732;51.472;6.466;2022-08-21T01:46:09;13.80;99.90
21149;DHT22;10732;51.472;6.466;2022-08-21T01:48:35;13.80;99.90
21149;DHT22;10732;51.472;6.466;2022-08-21T01:51:02;13.80;99.90
21149;DHT22;10732;51.472;6.466;2022-08-21T01:53:28;13.80;99.90
21149;DHT22;10732;51.472;6.466;2022-08-21T01:55:53;13.70;99.90
21149;DHT22;10732;51.472;6.466;2022-08-21T01:58:19;13.70;99.90
21149;DHT22;10732;51.472;6.466;2022-08-21T02:00:45;13.70;99.90
21149;DHT22;10732;51.472;6.466;2022-08-21T02:03:10;13.70;99.90
21149;DHT22;10732;51.472;6.466;2022-08-21T02:05:36;13.60;99.90
21149;DHT22;10732;51.472;6.466;2022-08-21T02:08:02;13.60;99.90
21149;DHT22;10732;51.472;6.466;2022-08-21T02:10:30;13.60;99.90
21149;DHT22;10732;51.472;6.466;2022-08-21T02:12:57;13.60;99.90
21149;DHT22;10732;51.472;6.466;2022-08-21T02:15:24;13.60;99.90
21149;DHT22;10732;51.472;6.466;2022-08-21T02:17:57;13.60;99.90
21149;DHT22;10732;51.472;6.466;2022-08-21T02:20:44;13.50;99.90
21149;DHT22;10732;51.472;6.466;2022-08-21T02:23:11;13.60;99.90
21149;DHT22;10732;51.472;6.466;2022-08-21T02:25:37;13.60;99.90
21149;DHT22;10732;51.472;6.466;2022-08-21T02:28:06;13.50;99.90
21149;DHT22;10732;51.472;6.466;2022-08-21T02:30:35;13.50;99.90
21149;DHT22;10732;51.472;6.466;2022-08-21T02:33:03;13.50;99.90
21149;DHT22;10732;51.472;6.466;2022-08-21T02:35:29;13.50;99.90
21149;DHT22;10732;51.472;6.466;2022-08-21T02:38:01;13.50;99.90
21149;DHT22;10732;51.472;6.466;2022-08-21T02:40:30;13.50;99.90
21149;DHT22;10732;51.472;6.466;2022-08-21T02:43:00;13.50;99.90
21149;DHT22;10732;51.472;6.466;2022-08-21T02:45:27;13.60;99.90
21149;DHT22;10732;51.472;6.466;2022-08-21T02:47:57;13.50;99.90
21149;DHT22;10732;51.472;6.466;2022-08-21T02:50:27;13.50;99.90
21149;DHT22;10732;51.472;6.466;2022-08-21T02:52:53;13.40;99.90
21149;DHT22;10732;51.472;6.466;2022-08-21T02:55:20;13.40;99.90
21149;DHT22;10732;51.472;6.466;2022-08-21T02:57:47;13.40;99.90
21149;DHT22;10732;51.472;6.466;2022-08-21T03:00:14;13.40;99.90
21149;DHT22;10732;51.472;6.466;2022-08-21T03:02:39;13.40;99.90
21149;DHT22;10732;51.472;6.466;2022-08-21T03:05:07;13.40;99.90
21149;DHT22;10732;51.472;6.466;2022-08-21T03:07:33;13.40;99.90
21149;DHT22;10732;51.472;6.466;2022-08-21T03:10:00;13.40;99.90
21149;DHT22;10732;51.472;6.466;2022-08-21T03:12:25;13.30;99.90
21149;DHT22;10732;51.472;6.466;2022-08-21T03:14:51;13.30;99.90
21149;DHT22;10732;51.472;6.466;2022-08-21T03:17:16;13.30;99.90
21149;DHT22;10732;51.472;6.466;2022-08-21T03:19:42;13.30;99.90
21149;DHT22;10732;51.472;6.466;2022-08-21T03:22:08;13.30;99.90
21149;DHT22;10732;51.472;6.466;2022-08-21T03:24:33;13.20;99.90
21149;DHT22;10732;51.472;6.466;2022-08-21T03:26:59;13.20;99.90
21149;DHT22;10732;51.472;6.466;2022-08-21T03:29:25;13.30;99.90
21149;DHT22;10732;51.472;6.466;2022-08-21T03:31:50;13.30;99.90
21149;DHT22;10732;51.472;6.466;2022-08-21T03:34:18;13.20;99.90
21149;DHT22;10732;51.472;6.466;2022-08-21T03:36:44;13.20;99.90
21149;DHT22;10732;51.472;6.466;2022-08-21T03:39:09;13.20;99.90
21149;DHT22;10732;51.472;6.466;2022-08-21T03:41:35;13.20;99.90
21149;DHT22;10732;51.472;6.466;2022-08-21T03:44:01;13.10;99.90
21149;DHT22;10732;51.472;6.466;2022-08-21T03:46:26;13.10;99.90
21149;DHT22;10732;51.472;6.466;2022-08-21T03:48:52;13.10;99.90
21149;DHT22;10732;51.472;6.466;2022-08-21T03:51:18;13.10;99.90
21149;DHT22;10732;51.472;6.466;2022-08-21T03:53:44;13.10;99.90
21149;DHT22;10732;51.472;6.466;2022-08-21T03:56:10;13.10;99.90
21149;DHT22;10732;51.472;6.466;2022-08-21T03:58:36;13.10;99.90
21149;DHT22;10732;51.472;6.466;2022-08-21T04:01:04;13.00;99.90
21149;DHT22;10732;51.472;6.466;2022-08-21T04:03:31;13.00;99.90
21149;DHT22;10732;51.472;6.466;2022-08-21T04:05:57;13.10;99.90
21149;DHT22;10732;51.472;6.466;2022-08-21T04:08:23;13.10;99.90
21149;DHT22;10732;51.472;6.466;2022-08-21T04:10:52;13.10;99.90
21149;DHT22;10732;51.472;6.466;2022-08-21T04:13:18;13.10;99.90
21149;DHT22;10732;51.472;6.466;2022-08-21T04:15:44;13.20;99.90
21149;DHT22;10732;51.472;6.466;2022-08-21T04:18:10;13.30;99.90
21149;DHT22;10732;51.472;6.466;2022-08-21T04:20:35;13.30;99.90
21149;DHT22;10732;51.472;6.466;2022-08-21T04:23:02;13.30;99.90
21149;DHT22;10732;51.472;6.466;2022-08-21T04:25:28;13.30;99.90
21149;DHT22;10732;51.472;6.466;2022-08-21T04:27:54;13.30;99.90
21149;DHT22;10732;51.472;6.466;2022-08-21T04:30:20;13.30;99.90
21149;DHT22;10732;51.472;6.466;2022-08-21T04:32:48;13.20;99.90
21149;DHT22;10732;51.472;6.466;2022-08-21T04:35:16;13.20;99.90
21149;DHT22;10732;51.472;6.466;2022-08-21T04:37:42;13.20;99.90
21149;DHT22;10732;51.472;6.466;2022-08-21T04:40:09;13.20;99.90
21149;DHT22;10732;51.472;6.466;2022-08-21T04:42:54;13.40;99.90
21149;DHT22;10732;51.472;6.466;2022-08-21T04:45:29;13.50;99.90
21149;DHT22;10732;51.472;6.466;2022-08-21T04:47:57;13.60;99.90
21149;DHT22;10732;51.472;6.466;2022-08-21T04:50:29;13.70;99.90
21149;DHT22;10732;51.472;6.466;2022-08-21T04:52:57;13.80;99.90
21149;DHT22;10732;51.472;6.466;2022-08-21T04:55:24;13.90;99.90
21149;DHT22;10732;51.472;6.466;2022-08-21T04:57:50;14.10;99.90
21149;DHT22;10732;51.472;6.466;2022-08-21T05:00:19;14.40;99.90
21149;DHT22;10732;51.472;6.466;2022-08-21T05:02:46;14.60;99.90
21149;DHT22;10732;51.472;6.466;2022-08-21T05:05:13;14.80;99.90
21149;DHT22;10732;51.472;6.466;2022-08-21T05:07:39;15.10;99.90
21149;DHT22;10732;51.472;6.466;2022-08-21T05:10:05;15.50;99.90
21149;DHT22;10732;51.472;6.466;2022-08-21T05:12:33;15.80;99.90
21149;DHT22;10732;51.472;6.466;2022-08-21T05:14:59;16.10;99.90
21149;DHT22;10732;51.472;6.466;2022-08-21T05:17:25;16.60;99.90
21149;DHT22;10732;51.472;6.466;2022-08-21T05:19:50;17.20;99.90
21149;DHT22;10732;51.472;6.466;2022-08-21T05:22:23;17.20;99.90
21149;DHT22;10732;51.472;6.466;2022-08-21T05:24:50;17.60;99.90
21149;DHT22;10732;51.472;6.466;2022-08-21T05:27:16;18.20;99.90
21149;DHT22;10732;51.472;6.466;2022-08-21T05:29:42;18.30;99.90
21149;DHT22;10732;51.472;6.466;2022-08-21T05:32:10;18.30;99.90
21149;DHT22;10732;51.472;6.466;2022-08-21T05:34:36;18.40;1.00
21149;DHT22;10732;51.472;6.466;2022-08-21T05:37:02;18.80;95.90
21149;DHT22;10732;51.472;6.466;2022-08-21T05:39:28;18.90;99.90
21149;DHT22;10732;51.472;6.466;2022-08-21T05:41:53;19.20;1.00
21149;DHT22;10732;51.472;6.466;2022-08-21T05:44:19;19.10;1.00
21149;DHT22;10732;51.472;6.466;2022-08-21T05:46:44;19.30;1.00
21149;DHT22;10732;51.472;6.466;2022-08-21T05:49:10;19.40;1.00
21149;DHT22;10732;51.472;6.466;2022-08-21T05:51:36;19.30;1.00
21149;DHT22;10732;51.472;6.466;2022-08-21T05:54:02;20.00;1.00
21149;DHT22;10732;51.472;6.466;2022-08-21T05:56:28;20.30;1.00
21149;DHT22;10732;51.472;6.466;2022-08-21T05:58:53;20.10;1.00
21149;DHT22;10732;51.472;6.466;2022-08-21T06:01:19;19.30;1.00
21149;DHT22;10732;51.472;6.466;2022-08-21T06:03:45;20.00;99.90
21149;DHT22;10732;51.472;6.466;2022-08-21T06:06:11;20.50;10.70
21149;DHT22;10732;51.472;6.466;2022-08-21T06:08:36;20.90;1.00
21149;DHT22;10732;51.472;6.466;2022-08-21T06:11:03;21.30;1.00
21149;DHT22;10732;51.472;6.466;2022-08-21T06:13:29;20.70;99.90
21149;DHT22;10732;51.472;6.466;2022-08-21T06:16:11;20.90;1.00
21149;DHT22;10732;51.472;6.466;2022-08-21T06:18:38;21.10;1.00
21149;DHT22;10732;51.472;6.466;2022-08-21T06:21:04;21.00;1.00
21149;DHT22;10732;51.472;6.466;2022-08-21T06:23:30;20.80;99.60
21149;DHT22;10732;51.472;6.466;2022-08-21T06:25:56;21.10;1.00
21149;DHT22;10732;51.472;6.466;2022-08-21T06:28:22;21.10;1.00
21149;DHT22;10732;51.472;6.466;2022-08-21T06:30:47;21.40;99.90
21149;DHT22;10732;51.472;6.466;2022-08-21T06:33:13;22.10;99.90
21149;DHT22;10732;51.472;6.466;2022-08-21T06:35:39;22.50;1.00
21149;DHT22;10732;51.472;6.466;2022-08-21T06:38:05;22.40;99.90
21149;DHT22;10732;51.472;6.466;2022-08-21T06:40:31;22.50;6.80
21149;DHT22;10732;51.472;6.466;2022-08-21T06:42:57;22.20;1.00
21149;DHT22;10732;51.472;6.466;2022-08-21T06:45:23;22.80;1.00
21149;DHT22;10732;51.472;6.466;2022-08-21T06:47:49;23.70;1.00
21149;DHT22;10732;51.472;6.466;2022-08-21T06:50:15;24.20;1.00
21149;DHT22;10732;51.472;6.466;2022-08-21T06:52:40;24.50;99.90
21149;DHT22;10732;51.472;6.466;2022-08-21T06:55:08;24.40;1.00
21149;DHT22;10732;51.472;6.466;2022-08-21T06:57:34;24.80;99.90
21149;DHT22;10732;51.472;6.466;2022-08-21T07:00:00;25.50;1.00
21149;DHT22;10732;51.472;6.466;2022-08-21T07:02:26;25.60;1.00
21149;DHT22;10732;51.472;6.466;2022-08-21T07:04:51;26.10;99.90
21149;DHT22;10732;51.472;6.466;2022-08-21T07:07:17;26.40;99.90
21149;DHT22;10732;51.472;6.466;2022-08-21T07:09:43;25.60;1.00
21149;DHT22;10732;51.472;6.466;2022-08-21T07:12:09;25.40;1.00
21149;DHT22;10732;51.472;6.466;2022-08-21T07:14:35;25.90;1.00
21149;DHT22;10732;51.472;6.466;2022-08-21T07:17:01;26.00;99.90
21149;DHT22;10732;51.472;6.466;2022-08-21T07:19:27;25.90;99.90
21149;DHT22;10732;51.472;6.466;2022-08-21T07:21:57;26.80;1.00
21149;DHT22;10732;51.472;6.466;2022-08-21T07:24:24;27.20;1.00
21149;DHT22;10732;51.472;6.466;2022-08-21T07:26:50;26.30;1.00
21149;DHT22;10732;51.472;6.466;2022-08-21T07:29:15;25.50;99.90
21149;DHT22;10732;51.472;6.466;2022-08-21T07:31:41;25.30;1.00
21149;DHT22;10732;51.472;6.466;2022-08-21T07:34:06;26.00;63.40
21149;DHT22;10732;51.472;6.466;2022-08-21T07:36:33;26.30;1.00
21149;DHT22;10732;51.472;6.466;2022-08-21T07:38:59;26.70;1.00
21149;DHT22;10732;51.472;6.466;2022-08-21T07:41:27;27.20;1.00
21149;DHT22;10732;51.472;6.466;2022-08-21T07:43:55;27.20;1.00
21149;DHT22;10732;51.472;6.466;2022-08-21T07:46:21;27.00;1.00
21149;DHT22;10732;51.472;6.466;2022-08-21T07:48:46;26.80;1.00
21149;DHT22;10732;51.472;6.466;2022-08-21T07:51:14;26.80;1.00
21149;DHT22;10732;51.472;6.466;2022-08-21T07:53:40;26.30;1.00
21149;DHT22;10732;51.472;6.466;2022-08-21T07:56:06;26.90;1.00
21149;DHT22;10732;51.472;6.466;2022-08-21T07:58:33;27.20;1.00
21149;DHT22;10732;51.472;6.466;2022-08-21T08:00:59;28.10;99.90
21149;DHT22;10732;51.472;6.466;2022-08-21T08:03:25;28.10;99.90
21149;DHT22;10732;51.472;6.466;2022-08-21T08:05:51;28.30;99.90
21149;DHT22;10732;51.472;6.466;2022-08-21T08:08:16;28.10;99.90
21149;DHT22;10732;51.472;6.466;2022-08-21T08:10:43;28.00;99.90
21149;DHT22;10732;51.472;6.466;2022-08-21T08:13:09;27.60;1.00
21149;DHT22;10732;51.472;6.466;2022-08-21T08:15:36;27.80;99.90
21149;DHT22;10732;51.472;6.466;2022-08-21T08:18:02;27.10;1.00
21149;DHT22;10732;51.472;6.466;2022-08-21T08:20:28;27.80;1.00
21149;DHT22;10732;51.472;6.466;2022-08-21T08:22:55;28.20;99.90
21149;DHT22;10732;51.472;6.466;2022-08-21T08:25:22;29.60;99.90
21149;DHT22;10732;51.472;6.466;2022-08-21T08:27:48;29.40;99.90
21149;DHT22;10732;51.472;6.466;2022-08-21T08:30:16;29.20;99.90
21149;DHT22;10732;51.472;6.466;2022-08-21T08:32:42;29.00;99.90
21149;DHT22;10732;51.472;6.466;2022-08-21T08:35:08;28.30;99.90
21149;DHT22;10732;51.472;6.466;2022-08-21T08:37:35;27.70;99.90
21149;DHT22;10732;51.472;6.466;2022-08-21T08:40:04;27.50;1.00
21149;DHT22;10732;51.472;6.466;2022-08-21T08:42:33;28.60;99.90
21149;DHT22;10732;51.472;6.466;2022-08-21T08:45:15;28.60;99.90
21149;DHT22;10732;51.472;6.466;2022-08-21T08:47:50;28.60;99.90
21149;DHT22;10732;51.472;6.466;2022-08-21T08:50:21;27.10;1.00
21149;DHT22;10732;51.472;6.466;2022-08-21T08:52:54;26.90;1.00
21149;DHT22;10732;51.472;6.466;2022-08-21T08:55:43;27.70;1.00
21149;DHT22;10732;51.472;6.466;2022-08-21T08:58:16;27.90;99.90
21149;DHT22;10732;51.472;6.466;2022-08-21T09:00:47;28.30;99.90
21149;DHT22;10732;51.472;6.466;2022-08-21T09:03:15;27.90;99.90
21149;DHT22;10732;51.472;6.466;2022-08-21T09:05:46;29.10;99.90
21149;DHT22;10732;51.472;6.466;2022-08-21T09:11:10;29.20;99.90
21149;DHT22;10732;51.472;6.466;2022-08-21T09:22:14;29.50;99.90
21149;DHT22;10732;51.472;6.466;2022-08-21T09:25:08;30.20;99.90
21149;DHT22;10732;51.472;6.466;2022-08-21T09:27:36;30.70;82.60
21149;DHT22;10732;51.472;6.466;2022-08-21T09:30:04;30.10;91.10
21149;DHT22;10732;51.472;6.466;2022-08-21T09:32:32;30.40;93.90
21149;DHT22;10732;51.472;6.466;2022-08-21T09:35:12;30.00;88.40
21149;DHT22;10732;51.472;6.466;2022-08-21T09:42:58;28.90;37.10
21149;DHT22;10732;51.472;6.466;2022-08-21T09:45:24;28.40;58.80
21149;DHT22;10732;51.472;6.466;2022-08-21T09:47:50;28.50;91.80
21149;DHT22;10732;51.472;6.466;2022-08-21T09:50:25;29.10;99.90
21149;DHT22;10732;51.472;6.466;2022-08-21T09:52:57;30.30;40.00
21149;DHT22;10732;51.472;6.466;2022-08-21T09:55:37;30.30;16.70
21149;DHT22;10732;51.472;6.466;2022-08-21T09:58:33;30.40;2.50
21149;DHT22;10732;51.472;6.466;2022-08-21T10:01:02;30.60;10.10
21149;DHT22;10732;51.472;6.466;2022-08-21T10:03:29;31.20;1.00
21149;DHT22;10732;51.472;6.466;2022-08-21T10:08:27;30.50;1.00
21149;DHT22;10732;51.472;6.466;2022-08-21T10:11:09;30.40;1.00
21149;DHT22;10732;51.472;6.466;2022-08-21T10:13:47;30.60;1.00
21149;DHT22;10732;51.472;6.466;2022-08-21T10:16:24;30.70;1.00
21149;DHT22;10732;51.472;6.466;2022-08-21T10:27:34;28.90;1.00
21149;DHT22;10732;51.472;6.466;2022-08-21T10:30:03;29.10;1.00
21149;DHT22;10732;51.472;6.466;2022-08-21T10:35:25;29.80;1.00
21149;DHT22;10732;51.472;6.466;2022-08-21T10:43:52;29.40;1.00
21149;DHT22;10732;51.472;6.466;2022-08-21T10:46:44;29.80;1.00
21149;DHT22;10732;51.472;6.466;2022-08-21T10:49:34;29.50;1.00
21149;DHT22;10732;51.472;6.466;2022-08-21T10:54:57;29.30;1.00
21149;DHT22;10732;51.472;6.466;2022-08-21T11:00:53;28.70;3.00
21149;DHT22;10732;51.472;6.466;2022-08-21T11:03:27;29.10;1.00
21149;DHT22;10732;51.472;6.466;2022-08-21T11:05:59;29.20;1.00
21149;DHT22;10732;51.472;6.466;2022-08-21T11:08:35;30.00;3.20
21149;DHT22;10732;51.472;6.466;2022-08-21T11:19:11;31.60;1.00
21149;DHT22;10732;51.472;6.466;2022-08-21T11:21:46;31.30;1.00
21149;DHT22;10732;51.472;6.466;2022-08-21T11:24:41;30.70;1.00
21149;DHT22;10732;51.472;6.466;2022-08-21T11:29:55;30.20;1.00
21149;DHT22;10732;51.472;6.466;2022-08-21T11:43:42;30.60;1.00
21149;DHT22;10732;51.472;6.466;2022-08-21T11:51:21;29.50;1.00
21149;DHT22;10732;51.472;6.466;2022-08-21T11:54:01;29.20;1.00
21149;DHT22;10732;51.472;6.466;2022-08-21T11:56:34;29.10;1.00
21149;DHT22;10732;51.472;6.466;2022-08-21T11:59:05;29.40;1.00
21149;DHT22;10732;51.472;6.466;2022-08-21T12:01:36;29.20;1.00
21149;DHT22;10732;51.472;6.466;2022-08-21T12:04:08;29.10;1.00
21149;DHT22;10732;51.472;6.466;2022-08-21T12:06:38;29.20;1.00
21149;DHT22;10732;51.472;6.466;2022-08-21T12:14:46;27.60;14.00
21149;DHT22;10732;51.472;6.466;2022-08-21T12:17:22;27.10;34.30
21149;DHT22;10732;51.472;6.466;2022-08-21T12:19:59;27.10;84.60
21149;DHT22;10732;51.472;6.466;2022-08-21T12:22:39;27.00;81.40
21149;DHT22;10732;51.472;6.466;2022-08-21T12:25:13;27.40;70.70
21149;DHT22;10732;51.472;6.466;2022-08-21T12:27:53;27.50;51.10
21149;DHT22;10732;51.472;6.466;2022-08-21T12:30:43;27.80;37.70
21149;DHT22;10732;51.472;6.466;2022-08-21T12:35:51;27.00;59.00
21149;DHT22;10732;51.472;6.466;2022-08-21T12:38:22;27.40;90.10
21149;DHT22;10732;51.472;6.466;2022-08-21T12:40:53;27.80;61.90
21149;DHT22;10732;51.472;6.466;2022-08-21T12:43:26;27.70;84.80
21149;DHT22;10732;51.472;6.466;2022-08-21T12:45:53;27.90;63.40
21149;DHT22;10732;51.472;6.466;2022-08-21T12:48:31;28.00;70.30
21149;DHT22;10732;51.472;6.466;2022-08-21T12:56:11;27.90;34.60
21149;DHT22;10732;51.472;6.466;2022-08-21T12:58:41;28.20;40.80
21149;DHT22;10732;51.472;6.466;2022-08-21T13:03:55;28.30;10.90
21149;DHT22;10732;51.472;6.466;2022-08-21T13:06:23;28.40;12.50
21149;DHT22;10732;51.472;6.466;2022-08-21T13:08:55;28.00;25.70
21149;DHT22;10732;51.472;6.466;2022-08-21T13:11:23;28.10;16.00
21149;DHT22;10732;51.472;6.466;2022-08-21T13:13:51;28.20;11.10
21149;DHT22;10732;51.472;6.466;2022-08-21T13:16:25;28.20;8.30
21149;DHT22;10732;51.472;6.466;2022-08-21T13:18:58;28.10;5.20
21149;DHT22;10732;51.472;6.466;2022-08-21T13:21:32;28.20;1.00
21149;DHT22;10732;51.472;6.466;2022-08-21T13:26:46;27.20;15.70
21149;DHT22;10732;51.472;6.466;2022-08-21T13:29:15;27.00;71.20
21149;DHT22;10732;51.472;6.466;2022-08-21T13:31:47;27.00;99.90
21149;DHT22;10732;51.472;6.466;2022-08-21T13:34:14;27.00;99.90
21149;DHT22;10732;51.472;6.466;2022-08-21T13:36:41;26.70;99.90
21149;DHT22;10732;51.472;6.466;2022-08-21T13:39:11;26.70;99.90
21149;DHT22;10732;51.472;6.466;2022-08-21T13:41:39;26.60;99.90
21149;DHT22;10732;51.472;6.466;2022-08-21T13:44:14;26.60;99.90
21149;DHT22;10732;51.472;6.466;2022-08-21T13:46:40;26.40;99.90
21149;DHT22;10732;51.472;6.466;2022-08-21T13:49:07;26.40;99.90
21149;DHT22;10732;51.472;6.466;2022-08-21T13:51:34;26.30;99.90
21149;DHT22;10732;51.472;6.466;2022-08-21T13:54:00;26.40;97.70
21149;DHT22;10732;51.472;6.466;2022-08-21T13:56:33;26.60;99.90
21149;DHT22;10732;51.472;6.466;2022-08-21T13:59:00;26.60;99.90
21149;DHT22;10732;51.472;6.466;2022-08-21T14:01:38;26.50;99.90
21149;DHT22;10732;51.472;6.466;2022-08-21T14:07:22;27.10;99.90
21149;DHT22;10732;51.472;6.466;2022-08-21T14:09:50;27.50;99.90
21149;DHT22;10732;51.472;6.466;2022-08-21T14:12:26;27.50;73.80
21149;DHT22;10732;51.472;6.466;2022-08-21T14:14:53;27.50;93.50
21149;DHT22;10732;51.472;6.466;2022-08-21T14:17:33;27.40;63.90
21149;DHT22;10732;51.472;6.466;2022-08-21T14:19:59;27.60;52.30
21149;DHT22;10732;51.472;6.466;2022-08-21T14:22:47;27.80;42.70
21149;DHT22;10732;51.472;6.466;2022-08-21T14:30:36;27.40;1.00
21149;DHT22;10732;51.472;6.466;2022-08-21T14:33:03;27.40;1.00
21149;DHT22;10732;51.472;6.466;2022-08-21T14:35:29;27.30;1.00
21149;DHT22;10732;51.472;6.466;2022-08-21T14:37:55;27.30;1.00
21149;DHT22;10732;51.472;6.466;2022-08-21T14:40:23;27.20;1.00
21149;DHT22;10732;51.472;6.466;2022-08-21T14:42:50;27.10;1.00
21149;DHT22;10732;51.472;6.466;2022-08-21T14:45:22;27.20;1.00
21149;DHT22;10732;51.472;6.466;2022-08-21T14:47:48;27.10;2.80
21149;DHT22;10732;51.472;6.466;2022-08-21T14:50:15;27.10;1.00
21149;DHT22;10732;51.472;6.466;2022-08-21T14:52:40;26.90;6.90
21149;DHT22;10732;51.472;6.466;2022-08-21T14:55:07;26.70;5.60
21149;DHT22;10732;51.472;6.466;2022-08-21T14:57:36;26.70;10.50
21149;DHT22;10732;51.472;6.466;2022-08-21T15:00:04;26.80;10.90
21149;DHT22;10732;51.472;6.466;2022-08-21T15:02:30;26.80;14.10
21149;DHT22;10732;51.472;6.466;2022-08-21T15:04:56;26.60;10.20
21149;DHT22;10732;51.472;6.466;2022-08-21T15:07:22;26.50;8.70
21149;DHT22;10732;51.472;6.466;2022-08-21T15:09:47;26.50;1.00
21149;DHT22;10732;51.472;6.466;2022-08-21T15:12:13;26.70;1.00
21149;DHT22;10732;51.472;6.466;2022-08-21T15:14:40;26.70;1.00
21149;DHT22;10732;51.472;6.466;2022-08-21T15:17:07;26.70;1.00
21149;DHT22;10732;51.472;6.466;2022-08-21T15:19:33;26.80;1.00
21149;DHT22;10732;51.472;6.466;2022-08-21T15:21:59;26.80;1.00
21149;DHT22;10732;51.472;6.466;2022-08-21T15:24:25;26.70;1.00
21149;DHT22;10732;51.472;6.466;2022-08-21T15:26:52;26.60;1.00
21149;DHT22;10732;51.472;6.466;2022-08-21T15:29:18;26.60;1.00
21149;DHT22;10732;51.472;6.466;2022-08-21T15:32:23;26.50;1.00
21149;DHT22;10732;51.472;6.466;2022-08-21T15:34:51;26.30;1.00
21149;DHT22;10732;51.472;6.466;2022-08-21T15:37:17;26.50;1.00
21149;DHT22;10732;51.472;6.466;2022-08-21T15:39:42;26.50;1.00
21149;DHT22;10732;51.472;6.466;2022-08-21T15:42:08;26.50;1.00
21149;DHT22;10732;51.472;6.466;2022-08-21T15:44:34;26.20;1.00
21149;DHT22;10732;51.472;6.466;2022-08-21T15:47:00;25.70;1.00
21149;DHT22;10732;51.472;6.466;2022-08-21T15:49:25;26.00;1.00
21149;DHT22;10732;51.472;6.466;2022-08-21T15:51:51;26.20;1.00
21149;DHT22;10732;51.472;6.466;2022-08-21T15:54:17;26.20;1.00
21149;DHT22;10732;51.472;6.466;2022-08-21T15:56:45;25.90;1.00
21149;DHT22;10732;51.472;6.466;2022-08-21T15:59:15;25.70;1.00
21149;DHT22;10732;51.472;6.466;2022-08-21T16:01:42;25.70;1.00
21149;DHT22;10732;51.472;6.466;2022-08-21T16:04:09;25.70;1.00
21149;DHT22;10732;51.472;6.466;2022-08-21T16:06:34;25.70;1.00
21149;DHT22;10732;51.472;6.466;2022-08-21T16:09:00;25.70;1.00
21149;DHT22;10732;51.472;6.466;2022-08-21T16:11:26;25.80;1.00
21149;DHT22;10732;51.472;6.466;2022-08-21T16:13:53;25.80;1.00
21149;DHT22;10732;51.472;6.466;2022-08-21T16:16:21;25.40;1.00
21149;DHT22;10732;51.472;6.466;2022-08-21T16:18:47;25.40;1.00
21149;DHT22;10732;51.472;6.466;2022-08-21T16:21:14;25.30;1.00
21149;DHT22;10732;51.472;6.466;2022-08-21T16:23:40;25.40;1.00
21149;DHT22;10732;51.472;6.466;2022-08-21T16:26:07;25.40;1.00
21149;DHT22;10732;51.472;6.466;2022-08-21T16:28:35;25.40;1.00
21149;DHT22;10732;51.472;6.466;2022-08-21T16:31:02;25.70;1.00
21149;DHT22;10732;51.472;6.466;2022-08-21T16:33:43;25.60;1.00
21149;DHT22;10732;51.472;6.466;2022-08-21T16:36:11;25.60;1.00
21149;DHT22;10732;51.472;6.466;2022-08-21T16:38:37;25.60;1.00
21149;DHT22;10732;51.472;6.466;2022-08-21T16:41:04;25.50;3.30
21149;DHT22;10732;51.472;6.466;2022-08-21T16:43:32;25.60;1.00
21149;DHT22;10732;51.472;6.466;2022-08-21T16:45:58;25.60;1.00
21149;DHT22;10732;51.472;6.466;2022-08-21T16:48:24;25.40;1.00
21149;DHT22;10732;51.472;6.466;2022-08-21T16:50:50;25.30;1.00
21149;DHT22;10732;51.472;6.466;2022-08-21T16:53:15;25.30;1.80
21149;DHT22;10732;51.472;6.466;2022-08-21T16:55:42;25.30;12.20
21149;DHT22;10732;51.472;6.466;2022-08-21T16:58:13;25.30;17.80
21149;DHT22;10732;51.472;6.466;2022-08-21T17:00:40;25.10;30.70
21149;DHT22;10732;51.472;6.466;2022-08-21T17:03:12;24.90;77.70
21149;DHT22;10732;51.472;6.466;2022-08-21T17:05:38;24.90;83.40
21149;DHT22;10732;51.472;6.466;2022-08-21T17:08:04;24.80;90.20
21149;DHT22;10732;51.472;6.466;2022-08-21T17:10:29;24.60;99.90
21149;DHT22;10732;51.472;6.466;2022-08-21T17:12:56;24.40;99.90
21149;DHT22;10732;51.472;6.466;2022-08-21T17:15:26;24.40;99.90
21149;DHT22;10732;51.472;6.466;2022-08-21T17:17:53;24.30;99.90
21149;DHT22;10732;51.472;6.466;2022-08-21T17:20:21;24.40;99.90
21149;DHT22;10732;51.472;6.466;2022-08-21T17:22:47;24.40;99.90